createdAt,value
2023-03-11T09:39:22.347Z,9.02
2023-03-11T09:42:11.080Z,9.55
2023-03-11T09:44:42.587Z,10.13
2023-03-11T09:47:21.693Z,8.32
2023-03-11T09:50:07.408Z,12.45
2023-03-11T09:52:46.269Z,13.05
2023-03-11T09:55:25.796Z,6.80
2023-03-11T09:57:56.244Z,15.43
2023-03-11T10:00:25.305Z,8.30
2023-03-11T10:02:52.791Z,9.98
2023-03-11T10:05:27.581Z,10.63
2023-03-11T10:08:13.240Z,7.38
2023-03-11T10:10:50.255Z,8.07
2023-03-11T10:13:32.518Z,7.05
2023-03-11T10:16:19.428Z,9.20
2023-03-11T10:18:56.960Z,7.78
2023-03-11T10:21:26.992Z,7.88
2023-03-11T10:24:02.158Z,10.48
2023-03-11T10:26:45.800Z,13.30
2023-03-11T10:29:19.180Z,5.78
2023-03-11T10:31:49.403Z,9.38
2023-03-11T10:34:40.044Z,8.65
2023-03-11T10:37:46.560Z,5.68
2023-03-11T10:40:32.316Z,12.52
2023-03-11T10:43:04.594Z,8.93
2023-03-11T10:45:41.636Z,8.10
2023-03-11T10:48:14.543Z,6.82
2023-03-11T10:51:14.915Z,11.30
2023-03-11T10:54:03.666Z,8.38
2023-03-11T10:56:37.140Z,8.70
2023-03-11T10:59:06.865Z,7.53
2023-03-11T11:01:34.583Z,8.88
2023-03-11T11:04:02.548Z,8.30
2023-03-11T11:06:37.489Z,9.68
2023-03-11T11:09:22.349Z,9.15
2023-03-11T11:12:16.619Z,12.15
2023-03-11T11:14:52.719Z,12.52
2023-03-11T11:17:31.287Z,6.80
2023-03-11T11:19:59.738Z,10.85
2023-03-11T11:22:28.577Z,9.32
2023-03-11T11:24:58.260Z,9.25
2023-03-11T11:27:29.396Z,7.88
2023-03-11T11:30:12.507Z,10.50
2023-03-11T11:35:15.244Z,10.00
2023-03-11T11:37:46.625Z,11.27
2023-03-11T11:40:17.303Z,13.63
2023-03-11T11:42:52.586Z,7.53
2023-03-11T11:45:33.394Z,5.80
2023-03-11T11:48:08.797Z,7.10
2023-03-11T11:50:42.151Z,6.43
2023-03-11T11:53:20.940Z,4.88
2023-03-11T11:55:52.710Z,5.10
2023-03-11T11:58:21.555Z,6.43
2023-03-11T12:01:07.117Z,8.68
2023-03-11T12:04:06.898Z,7.85
2023-03-11T12:06:50.835Z,4.13
2023-03-11T12:09:39.507Z,11.35
2023-03-11T12:12:21.814Z,6.55
2023-03-11T12:15:21.017Z,7.93
2023-03-11T12:17:52.733Z,5.95
2023-03-11T12:20:54.618Z,8.73
2023-03-11T12:23:46.150Z,9.25
2023-03-11T12:26:22.240Z,4.72
2023-03-11T12:29:24.645Z,8.70
2023-03-11T12:31:53.812Z,5.65
2023-03-11T12:34:24.939Z,5.50
2023-03-11T12:36:53.239Z,3.42
2023-03-11T12:39:32.932Z,7.13
2023-03-11T12:42:38.570Z,2.55
2023-03-11T12:45:43.263Z,6.68
2023-03-11T12:48:28.773Z,5.03
2023-03-11T12:50:59.737Z,4.35
2023-03-11T12:53:45.419Z,6.85
2023-03-11T12:56:25.303Z,6.68
2023-03-11T12:59:04.419Z,7.38
2023-03-11T13:01:56.820Z,8.32
2023-03-11T13:04:27.518Z,6.57
2023-03-11T13:07:05.506Z,8.50
2023-03-11T13:09:33.003Z,9.65
2023-03-11T13:12:00.305Z,9.27
2023-03-11T13:14:32.915Z,7.90
2023-03-11T13:17:26.116Z,13.57
2023-03-11T13:19:55.736Z,8.45
2023-03-11T13:22:43.636Z,6.32
2023-03-11T13:25:29.901Z,14.25
2023-03-11T13:28:27.835Z,11.00
2023-03-11T13:31:16.245Z,12.85
2023-03-11T13:33:58.211Z,15.02
2023-03-11T13:37:00.395Z,9.38
2023-03-11T13:39:39.447Z,14.43
2023-03-11T13:42:20.294Z,11.02
2023-03-11T13:44:48.096Z,11.60
2023-03-11T13:47:17.806Z,7.20
2023-03-11T13:50:02.907Z,6.43
2023-03-11T13:52:37.777Z,11.55
2023-03-11T13:55:15.839Z,6.63
2023-03-11T13:57:53.543Z,11.90
2023-03-11T14:00:28.701Z,6.93
2023-03-11T14:02:59.346Z,14.77
2023-03-11T14:05:31.081Z,6.22
2023-03-11T14:08:19.466Z,9.57
2023-03-11T14:11:01.333Z,7.18
2023-03-11T14:13:38.384Z,7.40
2023-03-11T14:16:16.011Z,5.63
2023-03-11T14:18:46.689Z,11.82
2023-03-11T14:21:20.061Z,12.65
2023-03-11T14:23:50.186Z,8.07
2023-03-11T14:26:23.213Z,7.60
2023-03-11T14:31:34.737Z,8.43
2023-03-11T14:36:54.448Z,2.88
2023-03-11T14:39:28.218Z,4.55
2023-03-11T14:42:19.083Z,6.80
2023-03-11T14:45:18.157Z,3.80
2023-03-11T14:48:16.536Z,6.25
2023-03-11T14:50:50.055Z,7.57
2023-03-11T14:53:26.279Z,4.30
2023-03-11T14:55:59.808Z,10.70
2023-03-11T14:58:49.166Z,5.05
2023-03-11T15:01:26.484Z,6.45
2023-03-11T15:03:58.763Z,5.00
2023-03-11T15:06:30.872Z,3.90
2023-03-11T15:09:07.683Z,6.07
2023-03-11T15:12:01.992Z,5.95
2023-03-11T15:14:32.766Z,3.50
2023-03-11T15:17:42.748Z,4.70
2023-03-11T15:20:31.435Z,7.82
2023-03-11T15:23:04.490Z,5.45
2023-03-11T15:28:29.266Z,6.13
2023-03-11T15:31:15.210Z,5.07
2023-03-11T15:33:43.579Z,8.07
2023-03-11T15:36:42.453Z,5.80
2023-03-11T15:39:17.818Z,6.38
2023-03-11T15:41:48.213Z,7.75
2023-03-11T15:44:28.171Z,5.35
2023-03-11T15:46:55.355Z,6.03
2023-03-11T15:49:22.691Z,6.38
2023-03-11T15:51:49.816Z,6.63
2023-03-11T15:54:17.014Z,8.80
2023-03-11T15:56:45.437Z,6.55
2023-03-11T15:59:17.312Z,6.68
2023-03-11T16:01:46.488Z,12.02
2023-03-11T16:04:16.204Z,9.95
2023-03-11T16:06:44.373Z,8.38
2023-03-11T16:09:12.389Z,5.72
2023-03-11T16:11:40.981Z,7.05
2023-03-11T16:14:16.521Z,8.07
2023-03-11T16:16:44.831Z,10.27
2023-03-11T16:19:12.322Z,4.88
2023-03-11T16:21:49.655Z,9.00
2023-03-11T16:24:23.612Z,4.57
2023-03-11T16:26:52.921Z,4.60
2023-03-11T16:29:20.704Z,8.55
2023-03-11T16:31:49.419Z,7.70
2023-03-11T16:34:16.838Z,5.00
2023-03-11T16:36:44.116Z,7.50
2023-03-11T16:39:11.980Z,7.53
2023-03-11T16:41:44.535Z,7.00
2023-03-11T16:44:11.980Z,6.65
2023-03-11T16:46:39.162Z,7.32
2023-03-11T16:49:06.585Z,10.93
2023-03-11T16:51:34.150Z,9.63
2023-03-11T16:54:01.503Z,6.72
2023-03-11T16:56:28.674Z,6.70
2023-03-11T16:58:55.816Z,9.95
2023-03-11T17:01:23.094Z,7.13
2023-03-11T17:03:51.097Z,7.43
2023-03-11T17:06:19.753Z,7.78
2023-03-11T17:08:49.703Z,6.15
2023-03-11T17:11:18.154Z,9.10
2023-03-11T17:13:45.664Z,6.93
2023-03-11T17:16:13.718Z,7.53
2023-03-11T17:18:41.985Z,8.27
2023-03-11T17:21:12.084Z,8.88
2023-03-11T17:23:39.866Z,9.55
2023-03-11T17:26:12.960Z,6.05
2023-03-11T17:28:40.671Z,8.02
2023-03-11T17:31:15.950Z,9.50
2023-03-11T17:33:44.296Z,11.43
2023-03-11T17:36:16.274Z,15.02
2023-03-11T17:38:45.542Z,7.85
2023-03-11T17:41:17.587Z,7.30
2023-03-11T17:43:46.215Z,10.23
2023-03-11T17:46:16.046Z,9.27
2023-03-11T17:48:45.352Z,10.23
2023-03-11T17:51:15.840Z,6.35
2023-03-11T17:53:45.980Z,8.98
2023-03-11T17:56:15.420Z,6.25
2023-03-11T17:58:42.772Z,6.82
2023-03-11T18:01:16.219Z,6.35
2023-03-11T18:03:43.629Z,6.07
2023-03-11T18:06:11.841Z,7.10
2023-03-11T18:08:39.217Z,8.50
2023-03-11T18:11:09.991Z,8.90
2023-03-11T18:13:38.844Z,7.78
2023-03-11T18:16:09.584Z,7.43
2023-03-11T18:18:37.867Z,8.05
2023-03-11T18:21:11.479Z,8.23
2023-03-11T18:23:39.116Z,6.35
2023-03-11T18:26:08.539Z,12.85
2023-03-11T18:28:36.151Z,10.52
2023-03-11T18:31:14.674Z,10.15
2023-03-11T18:33:46.629Z,11.02
2023-03-11T18:36:21.455Z,11.88
2023-03-11T18:38:49.249Z,11.38
2023-03-11T18:41:16.681Z,14.70
2023-03-11T18:43:43.862Z,15.77
2023-03-11T18:46:16.469Z,12.02
2023-03-11T18:48:43.541Z,10.52
2023-03-11T18:51:12.850Z,10.40
2023-03-11T18:53:42.442Z,10.30
2023-03-11T18:56:13.860Z,8.27
2023-03-11T18:58:41.248Z,10.65
2023-03-11T19:01:15.294Z,8.40
2023-03-11T19:03:44.210Z,8.05
2023-03-11T19:06:13.409Z,11.52
2023-03-11T19:08:40.815Z,7.32
2023-03-11T19:11:09.581Z,9.25
2023-03-11T19:13:46.715Z,9.57
2023-03-11T19:16:17.723Z,8.60
2023-03-11T19:18:45.637Z,8.38
2023-03-11T19:21:14.969Z,7.35
2023-03-11T19:23:42.234Z,11.40
2023-03-11T19:26:09.850Z,5.97
2023-03-11T19:28:37.259Z,8.05
2023-03-11T19:31:05.352Z,7.45
2023-03-11T19:33:32.784Z,9.63
2023-03-11T19:36:02.501Z,9.32
2023-03-11T19:38:31.161Z,7.47
2023-03-11T19:41:01.559Z,8.55
2023-03-11T19:43:29.492Z,10.32
2023-03-11T19:45:57.015Z,7.32
2023-03-11T19:48:24.407Z,12.35
2023-03-11T19:50:52.444Z,8.07
2023-03-11T19:53:21.924Z,18.55
2023-03-11T19:55:52.623Z,17.63
2023-03-11T19:58:21.195Z,10.65
2023-03-11T20:00:48.537Z,8.77
2023-03-11T20:03:17.248Z,8.95
2023-03-11T20:05:46.797Z,6.43
2023-03-11T20:08:17.261Z,8.68
2023-03-11T20:10:47.246Z,5.90
2023-03-11T20:13:16.638Z,5.35
2023-03-11T20:15:44.684Z,8.70
2023-03-11T20:18:13.452Z,5.47
2023-03-11T20:20:44.240Z,10.13
2023-03-11T20:23:13.480Z,10.25
2023-03-11T20:25:42.192Z,5.35
2023-03-11T20:28:10.942Z,7.30
2023-03-11T20:30:40.246Z,9.82
2023-03-11T20:33:08.396Z,11.10
2023-03-11T20:35:36.276Z,9.68
2023-03-11T20:38:04.763Z,7.90
2023-03-11T20:40:32.461Z,11.52
2023-03-11T20:43:00.182Z,9.07
2023-03-11T20:45:27.595Z,9.65
2023-03-11T20:47:55.841Z,11.63
2023-03-11T20:50:23.422Z,9.20
2023-03-11T20:52:51.537Z,8.82
2023-03-11T20:55:18.937Z,9.55
2023-03-11T20:57:46.811Z,10.32
2023-03-11T21:00:14.328Z,8.63
2023-03-11T21:02:43.476Z,12.80
2023-03-11T21:05:12.367Z,9.32
2023-03-11T21:07:40.549Z,11.82
2023-03-11T21:10:12.772Z,16.80
2023-03-11T21:12:39.989Z,11.47
2023-03-11T21:15:09.006Z,17.85
2023-03-11T21:17:37.389Z,19.60
2023-03-11T21:20:06.576Z,14.73
2023-03-11T21:22:34.098Z,14.82
2023-03-11T21:25:01.174Z,13.63
2023-03-11T21:27:28.507Z,17.40
2023-03-11T21:29:56.013Z,16.27
2023-03-11T21:32:25.001Z,17.38
2023-03-11T21:34:55.968Z,14.88
2023-03-11T21:37:23.400Z,15.60
2023-03-11T21:39:50.612Z,18.38
2023-03-11T21:42:18.250Z,19.00
2023-03-11T21:44:45.693Z,19.70
2023-03-11T21:47:12.813Z,24.65
2023-03-11T21:49:40.123Z,26.33
2023-03-11T21:52:07.534Z,21.42
2023-03-11T21:54:34.733Z,18.17
2023-03-11T21:57:01.880Z,22.92
2023-03-11T21:59:30.758Z,20.02
2023-03-11T22:02:01.540Z,24.52
2023-03-11T22:04:30.061Z,15.05
2023-03-11T22:06:57.589Z,18.95
2023-03-11T22:09:26.122Z,21.08
2023-03-11T22:11:54.266Z,23.77
2023-03-11T22:14:21.447Z,16.27
2023-03-11T22:16:48.910Z,22.65
2023-03-11T22:19:16.040Z,21.75
2023-03-11T22:21:43.769Z,21.05
2023-03-11T22:24:11.144Z,21.00
2023-03-11T22:26:38.438Z,22.42
2023-03-11T22:29:08.583Z,23.10
2023-03-11T22:31:36.056Z,22.08
2023-03-11T22:34:03.232Z,23.70
2023-03-11T22:36:30.349Z,27.55
2023-03-11T22:38:57.440Z,24.90
2023-03-11T22:41:24.566Z,18.52
2023-03-11T22:43:51.704Z,16.15
2023-03-11T22:46:18.852Z,20.63
2023-03-11T22:48:46.065Z,27.27
2023-03-11T22:51:13.375Z,25.98
2023-03-11T22:53:40.512Z,25.05
2023-03-11T22:56:10.655Z,25.92
2023-03-11T22:58:38.323Z,21.77
2023-03-11T23:01:06.388Z,21.95
2023-03-11T23:03:34.844Z,14.18
2023-03-11T23:06:06.742Z,14.63
2023-03-11T23:08:34.621Z,17.38
2023-03-11T23:11:03.947Z,20.88
2023-03-11T23:13:32.417Z,15.45
2023-03-11T23:16:05.332Z,18.20
2023-03-11T23:18:32.495Z,21.10
2023-03-11T23:20:59.550Z,17.70
2023-03-11T23:23:26.918Z,35.25
2023-03-11T23:25:54.181Z,18.73
2023-03-11T23:28:21.530Z,20.60
2023-03-11T23:30:48.623Z,23.50
2023-03-11T23:33:15.688Z,21.38
2023-03-11T23:35:43.099Z,21.83
2023-03-11T23:38:10.577Z,23.05
2023-03-11T23:40:40.826Z,24.05
2023-03-11T23:43:08.229Z,17.05
2023-03-11T23:45:35.564Z,22.00
2023-03-11T23:48:02.666Z,22.90
2023-03-11T23:50:29.764Z,21.27
2023-03-11T23:52:56.931Z,17.67
2023-03-11T23:55:24.115Z,12.88
2023-03-11T23:57:51.305Z,21.88
